Time;durP1;ratioP1;P1;durP2;ratioP2;P2;SDS_P1;SDS_P2;PMS_P1;PMS_P2;Temp;Humidity;BMP_temperature;BMP_pressure;BME280_temperature;BME280_humidity;BME280_pressure;Samples;Min_cycle;Max_cycle;Signal;HPM_P1;HPM_P2
2023/07/06 00:01:42;;;;;;;3.07;1.97;;;;;;;17.96;54.32;99263.34;7186547;40;20770;31
2023/07/06 00:07:21;;;;;;;2.98;1.94;;;;;;;17.80;54.48;99269.25;7204003;40;20353;31
2023/07/06 00:12:38;;;;;;;3.67;2.13;;;;;;;17.81;54.44;99270.09;7188304;40;20266;31
2023/07/06 00:17:55;;;;;;;4.10;2.17;;;;;;;17.85;53.66;99268.63;7202971;40;20324;31
2023/07/06 00:23:28;;;;;;;3.17;2.23;;;;;;;17.61;55.14;99277.41;7295717;39;20256;31
2023/07/06 00:29:04;;;;;;;3.47;1.80;;;;;;;17.61;54.74;99278.25;7260972;40;20257;31
2023/07/06 00:34:23;;;;;;;3.15;2.30;;;;;;;17.50;54.83;99282.44;7222540;40;20334;31
2023/07/06 00:39:56;;;;;;;3.77;2.10;;;;;;;17.32;56.35;99279.47;7173946;40;20346;31
2023/07/06 00:45:28;;;;;;;3.13;2.00;;;;;;;17.22;56.75;99278.19;7193166;40;20392;31
2023/07/06 00:51:03;;;;;;;3.27;2.27;;;;;;;17.11;55.77;99288.66;7192746;40;20258;31
2023/07/06 00:56:37;;;;;;;3.20;2.00;;;;;;;17.16;56.67;99289.94;7202953;40;20260;31
2023/07/06 01:02:11;;;;;;;3.43;2.37;;;;;;;17.13;56.54;99283.00;7243686;39;20330;31
2023/07/06 01:07:44;;;;;;;4.27;2.17;;;;;;;17.06;55.84;99290.34;7242437;40;20258;31
2023/07/06 01:13:17;;;;;;;3.60;2.20;;;;;;;16.69;57.34;99305.28;7245014;39;21149;31
2023/07/06 01:18:50;;;;;;;3.93;2.30;;;;;;;16.42;58.37;99303.44;7179276;40;20402;31
2023/07/06 01:24:29;;;;;;;5.30;2.40;;;;;;;16.22;58.70;99303.34;7190250;40;20239;31
2023/07/06 01:30:09;;;;;;;2.67;2.07;;;;;;;16.35;59.03;99294.41;7202146;40;20313;31
2023/07/06 01:35:43;;;;;;;3.10;2.50;;;;;;;16.16;59.04;99294.09;7164934;40;20266;31
2023/07/06 01:41:01;;;;;;;8.43;2.50;;;;;;;15.96;58.94;99290.44;7147760;40;20350;31
2023/07/06 01:46:33;;;;;;;4.57;2.60;;;;;;;16.12;59.35;99291.97;7203543;40;20257;31
2023/07/06 01:52:10;;;;;;;4.00;2.57;;;;;;;15.91;59.84;99294.75;7160057;40;20242;31
2023/07/06 01:57:42;;;;;;;6.97;2.40;;;;;;;15.85;59.81;99288.22;7201445;40;20249;31
2023/07/06 02:03:50;;;;;;;4.27;2.37;;;;;;;15.90;59.88;99291.22;7176790;40;20290;31
2023/07/06 02:09:22;;;;;;;3.53;2.50;;;;;;;15.93;59.04;99284.56;7182400;40;20246;31
2023/07/06 02:14:56;;;;;;;4.43;2.27;;;;;;;16.03;60.50;99279.56;7178259;40;20244;31
2023/07/06 02:25:33;;;;;;;4.00;2.20;;;;;;;16.09;58.78;99287.78;7258728;40;20335;31
2023/07/06 02:35:59;;;;;;;3.57;2.30;;;;;;;16.17;59.40;99279.47;7269851;39;20524;31
2023/07/06 02:46:38;;;;;;;3.17;2.35;;;;;;;15.96;59.60;99274.09;7312110;39;20269;31
2023/07/06 02:52:10;;;;;;;4.43;2.13;;;;;;;16.01;59.29;99274.34;7273808;40;20927;31
2023/07/06 02:57:28;;;;;;;4.20;2.30;;;;;;;15.83;59.09;99265.88;7212681;40;20254;31
2023/07/06 03:03:01;;;;;;;3.07;2.20;;;;;;;15.59;61.25;99267.13;7215514;40;20362;31
2023/07/06 03:08:33;;;;;;;5.50;2.50;;;;;;;15.44;60.19;99260.09;7192331;40;20265;31
2023/07/06 03:14:05;;;;;;;5.87;2.30;;;;;;;15.39;60.78;99257.13;7246016;40;20336;31
2023/07/06 03:19:38;;;;;;;3.43;2.40;;;;;;;15.27;61.58;99263.06;7214544;40;20348;31
2023/07/06 03:25:09;;;;;;;4.03;2.30;;;;;;;15.23;61.87;99267.22;7207076;40;20261;31
2023/07/06 03:30:43;;;;;;;3.80;2.27;;;;;;;15.15;62.72;99267.34;7048503;40;20218;31
2023/07/06 03:36:16;;;;;;;3.60;2.40;;;;;;;15.12;63.24;99259.59;7165719;40;20290;31
2023/07/06 03:46:58;;;;;;;5.12;2.47;;;;;;;15.05;62.98;99272.25;7191988;40;20351;31
2023/07/06 03:52:31;;;;;;;4.05;2.70;;;;;;;15.17;62.18;99280.72;7236726;40;20308;31
2023/07/06 03:58:07;;;;;;;2.53;2.07;;;;;;;15.13;63.51;99279.44;7195299;40;20437;31
2023/07/06 04:08:44;;;;;;;3.60;2.47;;;;;;;15.05;64.68;99277.69;7188653;40;20277;31
2023/07/06 04:14:01;;;;;;;4.75;2.30;;;;;;;15.02;63.36;99288.09;7236212;40;20283;31
2023/07/06 04:19:33;;;;;;;4.97;2.37;;;;;;;15.05;63.24;99282.28;7283231;39;20354;31
2023/07/06 04:25:04;;;;;;;5.30;2.50;;;;;;;15.13;64.10;99293.88;7230635;40;20266;31
2023/07/06 04:30:21;;;;;;;4.77;2.50;;;;;;;15.22;63.81;99298.13;7202082;40;20250;31
2023/07/06 04:35:53;;;;;;;4.93;2.50;;;;;;;15.22;65.12;99289.16;7182882;40;20349;31
2023/07/06 04:41:26;;;;;;;5.20;2.60;;;;;;;15.19;65.01;99293.06;7160497;40;20243;31
2023/07/06 04:46:43;;;;;;;3.60;2.40;;;;;;;15.23;63.68;99297.06;7124622;40;20241;31
2023/07/06 04:52:02;;;;;;;3.30;2.40;;;;;;;15.38;64.08;99302.44;7157589;40;20251;31
2023/07/06 04:57:34;;;;;;;3.63;2.20;;;;;;;15.41;63.67;99298.50;7120489;40;20408;31
2023/07/06 05:03:09;;;;;;;7.47;2.50;;;;;;;15.54;63.96;99298.66;7165648;40;20336;31
2023/07/06 05:13:46;;;;;;;3.37;2.60;;;;;;;15.97;63.67;99319.25;7310996;39;20295;31
2023/07/06 05:19:15;;;;;;;5.30;2.60;;;;;;;16.12;62.65;99316.44;7267980;39;20944;31
2023/07/06 05:29:53;;;;;;;4.20;2.50;;;;;;;16.52;62.75;99317.53;7295248;40;20779;31
2023/07/06 05:40:17;;;;;;;6.67;2.93;;;;;;;16.94;61.55;99320.03;7339896;39;20275;31
2023/07/06 05:45:50;;;;;;;4.83;2.80;;;;;;;17.19;60.86;99323.06;7313739;39;20358;31
2023/07/06 05:51:07;;;;;;;3.50;2.50;;;;;;;17.37;60.66;99320.56;7248959;40;20298;31
2023/07/06 05:56:24;;;;;;;6.10;2.50;;;;;;;17.61;61.24;99319.16;7232598;40;20237;31
2023/07/06 06:01:57;;;;;;;7.47;2.40;;;;;;;17.89;61.86;99319.78;7212331;40;20376;31
2023/07/06 06:12:34;;;;;;;4.97;2.47;;;;;;;18.38;61.39;99330.22;7321999;39;20419;31
2023/07/06 06:23:13;;;;;;;5.90;1.97;;;;;;;18.92;57.68;99329.84;7296869;39;20474;31
2023/07/06 06:28:33;;;;;;;3.67;2.10;;;;;;;19.17;56.53;99334.56;7274757;40;21274;31
2023/07/06 06:39:11;;;;;;;4.15;2.00;;;;;;;19.60;53.87;99342.94;7332636;39;20265;31
2023/07/06 06:49:50;;;;;;;4.70;1.80;;;;;;;19.89;50.55;99352.41;7296545;40;21006;31
2023/07/06 06:55:24;;;;;;;4.03;1.90;;;;;;;20.08;51.20;99348.66;7236335;40;21295;31
2023/07/06 07:00:44;;;;;;;7.53;2.30;;;;;;;20.32;50.96;99361.50;7198930;40;20249;31
2023/07/06 07:06:22;;;;;;;3.40;1.97;;;;;;;20.54;49.67;99360.03;7179963;40;20253;31
2023/07/06 07:11:55;;;;;;;6.00;2.33;;;;;;;20.84;49.25;99360.13;7183122;40;20254;31
2023/07/06 07:17:15;;;;;;;3.33;1.97;;;;;;;21.08;48.63;99363.84;7207488;39;20340;31
2023/07/06 07:22:35;;;;;;;3.07;1.97;;;;;;;21.23;49.02;99364.31;7203333;40;20265;31
2023/07/06 07:28:08;;;;;;;4.30;1.90;;;;;;;21.40;48.42;99368.09;7229873;39;20272;31
2023/07/06 07:33:43;;;;;;;3.57;2.10;;;;;;;21.57;47.75;99363.59;7188004;40;20402;31
2023/07/06 07:39:18;;;;;;;3.40;2.17;;;;;;;21.78;48.46;99351.25;7163791;40;20266;31
2023/07/06 07:44:51;;;;;;;4.07;2.13;;;;;;;21.86;47.24;99353.66;7132905;40;20258;31
2023/07/06 07:50:26;;;;;;;4.45;2.00;;;;;;;21.99;47.48;99352.63;7143267;40;21347;31
2023/07/06 08:01:06;;;;;;;5.00;2.50;;;;;;;21.92;47.30;99351.88;7182788;40;20462;31
2023/07/06 08:11:46;;;;;;;3.90;2.30;;;;;;;21.75;47.50;99359.13;7285010;39;20285;31
2023/07/06 08:22:25;;;;;;;5.20;2.40;;;;;;;21.85;47.53;99371.19;7279754;40;20290;31
2023/07/06 08:33:02;;;;;;;4.96;2.10;;;;;;;22.74;46.35;99372.00;7267135;39;21355;31
2023/07/06 08:38:38;;;;;;;4.23;2.37;;;;;;;23.21;44.62;99359.81;7254124;40;20786;31
2023/07/06 08:44:09;;;;;;;3.72;2.00;;;;;;;23.10;44.30;99360.72;7231043;40;20864;31
2023/07/06 08:49:45;;;;;;;4.65;2.10;;;;;;;23.02;44.75;99365.75;7233835;40;20427;31
2023/07/06 08:55:18;;;;;;;5.60;2.40;;;;;;;23.17;43.65;99366.91;7155408;40;20259;31
2023/07/06 09:00:53;;;;;;;3.90;2.10;;;;;;;23.50;43.73;99359.88;7154327;40;20300;31
2023/07/06 09:06:28;;;;;;;5.65;2.65;;;;;;;23.84;44.15;99353.34;7135651;40;20254;31
2023/07/06 09:12:05;;;;;;;4.07;2.22;;;;;;;24.19;42.21;99347.63;7146540;40;20262;31
2023/07/06 09:17:37;;;;;;;6.82;2.28;;;;;;;24.30;41.06;99345.87;7138042;40;20262;31
2023/07/06 09:23:09;;;;;;;2.90;2.20;;;;;;;24.47;40.44;99360.47;7115928;40;20267;31
2023/07/06 09:28:45;;;;;;;3.58;2.08;;;;;;;24.34;40.01;99350.63;7183514;40;20246;31
2023/07/06 09:34:20;;;;;;;4.68;2.17;;;;;;;24.07;40.76;99344.09;7150519;40;20266;31
2023/07/06 09:39:55;;;;;;;5.47;2.58;;;;;;;23.68;42.18;99343.16;7146263;40;20336;31
2023/07/06 09:45:34;;;;;;;4.35;2.30;;;;;;;24.03;41.01;99345.69;7207584;40;20245;31
2023/07/06 09:51:11;;;;;;;6.33;2.60;;;;;;;24.15;38.41;99335.41;7226271;40;20365;31
2023/07/06 09:56:44;;;;;;;3.90;2.50;;;;;;;24.45;39.18;99338.66;7214401;40;20253;31
2023/07/06 10:02:24;;;;;;;4.45;2.20;;;;;;;24.78;38.01;99336.94;7203575;40;20278;31
2023/07/06 10:07:57;;;;;;;4.90;2.55;;;;;;;24.44;37.51;99333.44;7196674;40;20252;31
2023/07/06 10:13:29;;;;;;;4.05;2.30;;;;;;;24.19;38.05;99342.12;7235700;40;20355;31
2023/07/06 10:19:02;;;;;;;3.15;2.10;;;;;;;24.16;39.50;99343.47;7200821;40;20367;31
2023/07/06 10:29:41;;;;;;;3.53;2.30;;;;;;;24.28;38.76;99342.53;7252542;40;20327;31
2023/07/06 10:40:28;;;;;;;3.85;2.10;;;;;;;24.91;37.22;99353.97;7231315;40;21089;31
2023/07/06 10:46:03;;;;;;;3.05;2.25;;;;;;;25.25;35.17;99340.84;7252851;40;20245;31
2023/07/06 10:51:35;;;;;;;3.60;2.37;;;;;;;25.73;35.65;99341.94;7040091;40;20236;31
2023/07/06 10:57:16;;;;;;;4.40;2.10;;;;;;;25.76;36.64;99345.00;7214752;40;20358;31
2023/07/06 11:02:50;;;;;;;5.53;2.40;;;;;;;25.24;38.53;99361.25;7176137;40;20261;31
2023/07/06 11:08:25;;;;;;;4.90;2.80;;;;;;;24.96;38.28;99358.72;7204112;40;20757;31
2023/07/06 11:14:05;;;;;;;5.12;2.60;;;;;;;24.82;39.35;99360.97;7197719;40;20542;31
2023/07/06 11:19:52;;;;;;;2.80;2.42;;;;;;;25.24;38.79;99350.22;7186130;40;20834;31
2023/07/06 11:30:31;;;;;;;3.17;2.22;;;;;;;25.30;36.69;99345.59;7230650;40;21366;31
2023/07/06 11:36:22;;;;;;;6.80;2.20;;;;;;;25.72;34.98;99343.03;7237822;40;20814;31
2023/07/06 11:41:54;;;;;;;3.55;2.28;;;;;;;25.53;34.91;99345.31;7228705;40;20362;31
2023/07/06 11:52:31;;;;;;;3.70;2.60;;;;;;;26.19;34.99;99332.97;7243367;40;21097;31
2023/07/06 11:58:18;;;;;;;3.10;2.30;;;;;;;26.17;34.21;99335.16;7229771;40;20249;31
2023/07/06 12:03:42;;;;;;;4.80;2.20;;;;;;;25.80;35.41;99323.25;7225677;40;20317;31
2023/07/06 12:09:19;;;;;;;4.20;2.20;;;;;;;25.63;36.94;99337.16;7173439;40;20266;31
2023/07/06 12:14:55;;;;;;;3.96;2.22;;;;;;;25.60;36.41;99334.09;7224921;40;20423;31
2023/07/06 12:20:31;;;;;;;4.30;2.40;;;;;;;25.52;36.46;99321.56;7214052;40;20280;31
2023/07/06 12:26:07;;;;;;;3.42;2.00;;;;;;;25.52;36.31;99329.84;7168416;40;20279;31
2023/07/06 12:31:40;;;;;;;4.80;2.50;;;;;;;26.19;35.72;99318.31;7124562;40;20317;31
2023/07/06 12:37:17;;;;;;;3.85;2.20;;;;;;;26.57;33.17;99320.81;7195499;40;20261;31
2023/07/06 12:42:53;;;;;;;5.10;2.20;;;;;;;26.28;34.66;99305.69;7210396;40;20261;31
2023/07/06 12:48:32;;;;;;;3.37;2.17;;;;;;;26.29;34.33;99302.66;7202980;40;20258;31
2023/07/06 12:54:02;;;;;;;3.10;2.35;;;;;;;26.56;34.35;99302.53;7222672;40;20269;31
2023/07/06 12:59:36;;;;;;;3.87;2.37;;;;;;;26.73;33.61;99296.81;7198084;40;20478;31
2023/07/06 13:04:56;;;;;;;4.00;2.72;;;;;;;26.67;33.30;99293.22;7166594;40;20281;31
2023/07/06 13:10:31;;;;;;;4.35;2.20;;;;;;;26.74;32.79;99282.72;7226227;40;20319;31
2023/07/06 13:16:09;;;;;;;4.72;2.30;;;;;;;26.73;33.67;99277.47;7206922;40;20369;31
2023/07/06 13:21:44;;;;;;;3.37;2.30;;;;;;;26.76;32.75;99277.78;7218152;40;20275;31
2023/07/06 13:27:21;;;;;;;2.78;2.03;;;;;;;26.55;33.45;99276.00;7196616;40;20266;31
2023/07/06 13:32:56;;;;;;;3.15;2.30;;;;;;;26.37;33.76;99279.22;7235093;40;20276;31
2023/07/06 13:38:31;;;;;;;2.70;2.20;;;;;;;26.26;33.94;99274.72;7278342;39;20272;31
2023/07/06 13:44:07;;;;;;;2.77;2.10;;;;;;;26.25;34.37;99271.13;7283840;40;20261;31
2023/07/06 13:49:44;;;;;;;2.60;2.20;;;;;;;26.13;34.34;99275.16;7265489;40;20271;31
2023/07/06 13:55:18;;;;;;;4.93;2.60;;;;;;;26.62;33.27;99271.06;7205938;40;20450;31
2023/07/06 14:00:50;;;;;;;3.23;2.40;;;;;;;27.04;32.56;99257.13;7218391;40;20292;31
2023/07/06 14:06:24;;;;;;;6.43;2.60;;;;;;;27.17;32.17;99258.56;7173074;40;20367;31
2023/07/06 14:11:46;;;;;;;4.40;2.15;;;;;;;27.29;31.99;99248.09;7208191;40;20709;31
2023/07/06 14:17:03;;;;;;;5.32;2.30;;;;;;;27.74;31.78;99247.28;7234538;40;20269;31
2023/07/06 14:22:37;;;;;;;3.75;2.20;;;;;;;27.67;31.38;99241.22;7207557;40;20252;31
2023/07/06 14:28:10;;;;;;;6.25;2.45;;;;;;;27.42;32.49;99250.31;7246802;39;20360;31
2023/07/06 14:33:27;;;;;;;5.55;2.10;;;;;;;27.02;33.09;99250.22;7237988;40;20728;31
2023/07/06 14:39:02;;;;;;;4.55;2.17;;;;;;;26.72;32.62;99248.16;7223501;40;20951;31
2023/07/06 14:44:24;;;;;;;4.50;2.28;;;;;;;26.53;33.55;99249.72;7210420;40;20262;31
2023/07/06 14:49:41;;;;;;;4.22;2.10;;;;;;;26.48;34.27;99253.28;7253422;40;20909;31
2023/07/06 14:55:15;;;;;;;4.05;2.30;;;;;;;26.43;33.99;99253.25;7288839;39;20277;31
2023/07/06 15:00:36;;;;;;;3.58;2.28;;;;;;;26.33;34.02;99247.66;7289841;39;20442;31
2023/07/06 15:06:17;;;;;;;4.25;2.40;;;;;;;26.27;33.91;99248.75;7264520;39;20272;31
2023/07/06 15:11:51;;;;;;;4.05;2.30;;;;;;;26.08;34.16;99248.31;7174786;40;20442;31
2023/07/06 15:17:26;;;;;;;3.40;2.40;;;;;;;26.01;34.79;99243.03;7202324;40;20241;31
2023/07/06 15:23:01;;;;;;;3.73;2.20;;;;;;;26.31;33.74;99236.06;7203148;40;20253;31
2023/07/06 15:28:37;;;;;;;5.40;2.42;;;;;;;26.38;33.12;99231.94;7214717;40;20273;31
2023/07/06 15:33:58;;;;;;;5.85;2.40;;;;;;;26.44;33.46;99230.03;7175130;40;20365;31
2023/07/06 15:39:29;;;;;;;3.65;2.53;;;;;;;26.55;32.82;99233.72;7201984;40;20261;31
2023/07/06 15:45:02;;;;;;;5.32;2.50;;;;;;;26.72;32.13;99223.25;7242079;40;20264;31
2023/07/06 15:50:20;;;;;;;3.90;2.25;;;;;;;27.05;32.56;99219.22;7202719;40;20363;31
2023/07/06 15:55:51;;;;;;;3.92;2.22;;;;;;;27.03;32.81;99215.94;7236593;40;20447;31
2023/07/06 16:01:28;;;;;;;4.57;2.70;;;;;;;27.19;32.44;99223.13;7233089;40;20262;31
2023/07/06 16:06:45;;;;;;;4.20;2.20;;;;;;;27.40;30.87;99216.53;7291106;39;20310;31
2023/07/06 16:12:06;;;;;;;3.72;2.20;;;;;;;27.29;31.08;99207.38;7319773;39;20393;31
2023/07/06 16:17:37;;;;;;;3.60;2.30;;;;;;;27.42;30.28;99206.00;7303259;39;20267;31
2023/07/06 16:22:54;;;;;;;3.27;2.40;;;;;;;27.18;31.51;99200.16;7239688;40;20258;31
2023/07/06 16:33:35;;;;;;;4.10;2.20;;;;;;;26.78;31.40;99206.41;7300191;39;20348;31
2023/07/06 16:38:52;;;;;;;4.86;2.14;;;;;;;27.10;31.98;99197.94;7240626;40;20323;31
2023/07/06 16:44:12;;;;;;;4.07;2.50;;;;;;;27.05;31.72;99199.84;7256989;40;20808;31
2023/07/06 16:49:48;;;;;;;2.58;2.05;;;;;;;26.97;31.68;99209.53;7254818;40;20264;31
2023/07/06 16:55:21;;;;;;;3.62;2.35;;;;;;;27.00;31.38;99208.16;7216928;40;20359;31
2023/07/06 17:00:56;;;;;;;3.13;2.10;;;;;;;26.73;31.44;99206.38;7228722;40;20280;31
2023/07/06 17:06:29;;;;;;;5.10;2.05;;;;;;;26.61;31.13;99218.78;7239112;40;20373;31
2023/07/06 17:11:47;;;;;;;4.30;2.07;;;;;;;26.55;31.66;99212.38;7002835;40;20249;31
2023/07/06 17:22:27;;;;;;;3.45;2.30;;;;;;;26.17;31.67;99221.00;7288981;39;20464;31
2023/07/06 17:27:44;;;;;;;5.03;2.27;;;;;;;26.14;32.54;99224.31;7275725;40;20277;31
2023/07/06 17:33:04;;;;;;;2.98;2.30;;;;;;;25.98;32.39;99228.91;7251515;40;20288;31
2023/07/06 17:43:41;;;;;;;3.70;2.33;;;;;;;25.83;32.80;99232.41;7246407;40;20280;31
2023/07/06 17:49:14;;;;;;;3.65;1.95;;;;;;;25.85;32.97;99226.59;7293936;40;20280;31
2023/07/06 17:54:49;;;;;;;20.00;4.05;;;;;;;25.78;32.72;99237.06;7223103;40;20283;31
2023/07/06 18:00:26;;;;;;;4.75;2.50;;;;;;;25.75;33.54;99227.38;7235948;40;20381;31
2023/07/06 18:06:01;;;;;;;3.25;2.20;;;;;;;25.66;34.00;99228.97;7207861;40;20437;31
2023/07/06 18:11:21;;;;;;;3.88;2.42;;;;;;;25.58;33.87;99234.13;7172084;40;20271;31
2023/07/06 18:16:57;;;;;;;5.32;2.72;;;;;;;25.46;34.83;99232.34;7205981;40;20283;31
2023/07/06 18:22:32;;;;;;;4.37;2.53;;;;;;;25.34;35.36;99233.59;7185314;40;20265;31
2023/07/06 18:28:08;;;;;;;3.32;2.32;;;;;;;25.21;36.32;99245.06;7235538;40;20277;31
2023/07/06 18:33:44;;;;;;;4.80;2.30;;;;;;;25.06;37.01;99245.72;7201650;40;20258;31
2023/07/06 18:39:04;;;;;;;6.22;2.80;;;;;;;24.98;38.31;99247.03;7191471;40;20297;31
2023/07/06 18:44:21;;;;;;;2.78;2.30;;;;;;;24.93;39.38;99251.63;7170969;40;20368;31
2023/07/06 18:54:55;;;;;;;4.47;2.00;;;;;;;24.75;39.97;99263.81;7276117;39;21245;31
2023/07/06 19:00:16;;;;;;;5.57;2.30;;;;;;;24.58;40.20;99261.13;7250432;40;20379;31
2023/07/06 19:10:53;;;;;;;8.30;2.70;;;;;;;24.23;41.61;99275.25;7273431;40;21128;31
2023/07/06 19:21:14;;;;;;;4.00;2.80;;;;;;;23.69;43.09;99276.84;7271014;39;21041;31
2023/07/06 19:26:50;;;;;;;4.10;2.40;;;;;;;23.54;42.36;99279.31;7318581;39;20482;31
2023/07/06 19:32:25;;;;;;;4.70;2.70;;;;;;;23.40;43.63;99279.84;7249917;40;20306;31
2023/07/06 19:38:00;;;;;;;3.87;2.35;;;;;;;23.21;43.33;99287.50;7254871;40;20271;31
2023/07/06 19:43:36;;;;;;;4.55;2.85;;;;;;;22.74;44.39;99297.81;7216343;40;20312;31
2023/07/06 19:49:11;;;;;;;5.55;2.25;;;;;;;22.41;44.83;99299.28;7229870;40;20309;31
2023/07/06 19:54:28;;;;;;;4.37;2.57;;;;;;;22.37;45.18;99314.56;7222065;40;20343;31
2023/07/06 20:00:03;;;;;;;5.80;2.50;;;;;;;22.29;45.60;99312.16;7235846;40;20327;31
2023/07/06 20:05:19;;;;;;;3.72;2.80;;;;;;;21.94;45.71;99317.66;7207330;40;20446;31
2023/07/06 20:10:54;;;;;;;6.15;3.12;;;;;;;21.81;46.26;99327.97;7193360;40;20258;31
2023/07/06 20:16:27;;;;;;;3.90;2.58;;;;;;;21.74;46.26;99327.25;7198623;40;21135;31
2023/07/06 20:21:48;;;;;;;4.72;2.52;;;;;;;21.62;45.35;99334.62;7224079;40;20428;31
2023/07/06 20:27:20;;;;;;;3.40;2.30;;;;;;;21.51;45.87;99334.34;7234064;40;20268;31
2023/07/06 20:32:53;;;;;;;3.30;2.58;;;;;;;21.42;46.06;99340.41;7192321;40;20311;31
2023/07/06 20:38:26;;;;;;;5.62;2.40;;;;;;;21.31;45.78;99344.78;7203695;40;20321;31
2023/07/06 20:43:43;;;;;;;4.15;2.72;;;;;;;21.22;45.40;99343.44;7126185;40;20251;31
2023/07/06 20:49:18;;;;;;;4.45;3.58;;;;;;;21.06;45.58;99346.78;7117517;40;20311;31
2023/07/06 20:54:53;;;;;;;3.70;2.50;;;;;;;20.96;45.88;99352.81;7168439;40;20394;31
2023/07/06 21:00:11;;;;;;;4.23;2.50;;;;;;;20.86;46.14;99357.97;7174506;40;20385;31
2023/07/06 21:10:48;;;;;;;4.40;2.60;;;;;;;20.49;46.77;99365.34;7265012;40;21143;31
2023/07/06 21:16:20;;;;;;;5.00;2.80;;;;;;;20.30;47.26;99360.91;7233381;40;20261;31
2023/07/06 21:21:52;;;;;;;3.37;2.60;;;;;;;20.20;48.22;99363.28;7234444;40;20413;31
2023/07/06 21:27:23;;;;;;;3.55;2.30;;;;;;;20.06;49.56;99376.25;7173779;40;20251;31
2023/07/06 21:32:58;;;;;;;2.70;2.40;;;;;;;20.05;48.17;99371.03;7150226;40;20243;31
2023/07/06 21:38:16;;;;;;;4.25;2.45;;;;;;;19.97;49.94;99372.12;7146197;40;20247;31
2023/07/06 21:43:48;;;;;;;4.50;2.60;;;;;;;19.83;49.58;99378.78;7144881;40;20372;31
2023/07/06 21:49:20;;;;;;;4.25;2.58;;;;;;;19.87;49.01;99381.91;7171809;40;20245;31
2023/07/06 21:54:41;;;;;;;4.90;2.80;;;;;;;19.47;50.32;99375.84;7224864;40;21379;31
2023/07/06 22:00:12;;;;;;;3.50;2.50;;;;;;;19.41;50.95;99377.53;7230225;40;20264;31
2023/07/06 22:05:46;;;;;;;3.80;2.80;;;;;;;19.24;51.36;99384.56;7198687;40;20376;31
2023/07/06 22:11:07;;;;;;;4.90;2.80;;;;;;;19.14;51.50;99384.19;7148079;40;20242;31
2023/07/06 22:16:43;;;;;;;5.17;2.30;;;;;;;19.01;51.51;99392.44;7195074;40;20350;31
2023/07/06 22:22:17;;;;;;;3.47;2.80;;;;;;;18.86;51.54;99396.28;7164716;40;20270;31
2023/07/06 22:27:38;;;;;;;4.20;2.80;;;;;;;18.67;52.32;99399.91;7219618;40;20351;31
2023/07/06 22:38:31;;;;;;;10.36;2.78;;;;;;;18.35;53.45;99395.28;7225335;40;20449;31
2023/07/06 22:49:08;;;;;;;9.95;2.90;;;;;;;18.10;53.22;99397.84;7227407;40;20265;31
2023/07/06 22:59:48;;;;;;;3.90;2.30;;;;;;;18.00;54.53;99384.59;7262765;39;20349;31
2023/07/06 23:05:23;;;;;;;3.23;2.67;;;;;;;17.99;54.22;99384.81;7256231;40;20355;31
2023/07/06 23:10:56;;;;;;;3.03;2.17;;;;;;;17.87;54.37;99386.50;7249341;40;20327;31
2023/07/06 23:16:32;;;;;;;3.57;2.50;;;;;;;17.73;54.51;99390.25;7251105;40;21931;31
2023/07/06 23:22:07;;;;;;;3.30;2.70;;;;;;;17.70;54.81;99391.50;7244014;40;20319;31
2023/07/06 23:32:48;;;;;;;5.15;2.40;;;;;;;17.47;55.71;99408.19;7223826;40;20635;31
2023/07/06 23:38:23;;;;;;;3.13;2.40;;;;;;;17.52;55.03;99399.41;7259189;40;20412;31
2023/07/06 23:43:58;;;;;;;5.27;2.67;;;;;;;17.47;54.90;99399.19;7218813;40;20339;31
2023/07/06 23:49:34;;;;;;;3.07;2.47;;;;;;;17.35;56.13;99401.69;7190403;40;20293;31
2023/07/06 23:54:51;;;;;;;6.00;2.90;;;;;;;17.17;56.12;99403.28;7203789;40;20261;31
